Time;durP1;ratioP1;P1;durP2;ratioP2;P2;SDS_P1;SDS_P2;PMS_P1;PMS_P2;Temp;Humidity;BMP_temperature;BMP_pressure;BME280_temperature;BME280_humidity;BME280_pressure;Samples;Min_cycle;Max_cycle;Signal;HPM_P1;HPM_P2
2022/04/26 03:37:20;;;;;;;3.97;2.92;;;;;;;;;;5062066;28;20043;-73
2022/04/26 03:39:46;;;;;;;7.25;5.25;;;;;;;;;;5058871;28;20100;-74
2022/04/26 03:42:13;;;;;;;0.65;0.65;;;;;;;;;;5059562;28;20048;-74
2022/04/26 03:44:39;;;;;;;0.45;0.45;;;;;;;;;;5068717;28;20104;-75
2022/04/26 03:47:06;;;;;;;5.05;2.70;;;;;;;;;;5068388;28;20463;-75
2022/04/26 03:49:32;;;;;;;3.15;2.92;;;;;;;;;;5059884;28;20029;-76
2022/04/26 03:51:59;;;;;;;17.38;6.22;;;;;;;;;;5066387;28;20104;-74
2022/04/26 03:54:25;;;;;;;0.13;0.13;;;;;;;;;;5065460;28;20071;-74
2022/04/26 03:56:52;;;;;;;1.42;1.13;;;;;;;;;;5065024;28;20056;-75
2022/04/26 03:59:21;;;;;;;1.58;1.25;;;;;;;;;;5071839;28;20100;-76
2022/04/26 04:01:47;;;;;;;4.95;0.93;;;;;;;;;;5068796;28;20150;-75
2022/04/26 04:04:14;;;;;;;17.92;8.13;;;;;;;;;;5070453;28;20032;-76
2022/04/26 04:06:41;;;;;;;3.97;2.33;;;;;;;;;;5069860;28;20025;-76
2022/04/26 04:09:07;;;;;;;1.85;1.75;;;;;;;;;;5063792;28;20049;-75
2022/04/26 04:11:33;;;;;;;10.68;4.93;;;;;;;;;;5064867;28;20033;-77
2022/04/26 04:14:00;;;;;;;7.68;4.63;;;;;;;;;;5073587;28;20020;-76
2022/04/26 04:16:29;;;;;;;0.35;0.35;;;;;;;;;;5068429;28;20025;-75
2022/04/26 04:21:40;;;;;;;15.98;14.80;;;;;;;;;;5060257;28;20058;-76
2022/04/26 04:24:07;;;;;;;2.90;2.67;;;;;;;;;;5061985;28;20023;-76
2022/04/26 04:26:33;;;;;;;20.10;8.60;;;;;;;;;;5070230;28;20104;-75
2022/04/26 04:29:00;;;;;;;15.68;9.13;;;;;;;;;;5067523;28;20575;-74
2022/04/26 04:31:26;;;;;;;8.27;4.28;;;;;;;;;;5066212;28;20040;-74
2022/04/26 04:33:52;;;;;;;7.30;5.78;;;;;;;;;;5066414;28;20025;-74
2022/04/26 04:36:19;;;;;;;9.52;4.13;;;;;;;;;;5068038;28;20111;-74
2022/04/26 04:38:45;;;;;;;17.55;8.57;;;;;;;;;;5067682;28;20190;-74
2022/04/26 04:41:11;;;;;;;4.07;1.48;;;;;;;;;;5066566;28;20029;-74
2022/04/26 04:43:37;;;;;;;3.28;2.47;;;;;;;;;;5074870;28;20036;-75
2022/04/26 04:46:04;;;;;;;4.82;3.60;;;;;;;;;;5072804;28;20047;-74
2022/04/26 04:48:30;;;;;;;7.32;2.65;;;;;;;;;;5064667;28;20091;-76
2022/04/26 04:50:57;;;;;;;5.10;3.88;;;;;;;;;;5076948;28;20040;-76
2022/04/26 04:53:23;;;;;;;9.82;9.07;;;;;;;;;;5077591;28;20050;-74
2022/04/26 04:55:49;;;;;;;9.18;4.60;;;;;;;;;;5066616;28;20028;-74
2022/04/26 04:58:16;;;;;;;8.00;3.40;;;;;;;;;;5075929;28;20025;-75
2022/04/26 05:00:42;;;;;;;4.97;3.90;;;;;;;;;;5065309;28;20424;-75
2022/04/26 05:03:08;;;;;;;1.95;1.50;;;;;;;;;;5075381;28;20052;-73
2022/04/26 05:05:36;;;;;;;4.95;3.28;;;;;;;;;;5073899;28;20024;-74
2022/04/26 05:08:02;;;;;;;5.07;4.03;;;;;;;;;;5071094;28;20066;-76
2022/04/26 05:10:33;;;;;;;18.70;4.63;;;;;;;;;;5060310;28;20028;-74
2022/04/26 05:13:00;;;;;;;5.38;2.88;;;;;;;;;;5067811;28;20101;-74
2022/04/26 05:15:26;;;;;;;18.83;7.05;;;;;;;;;;5064897;28;20032;-74
2022/04/26 05:17:53;;;;;;;12.48;6.20;;;;;;;;;;5072536;28;20021;-72
2022/04/26 05:20:19;;;;;;;0.13;0.13;;;;;;;;;;5070858;28;20569;-73
2022/04/26 05:25:34;;;;;;;14.02;6.78;;;;;;;;;;5070932;28;20095;-74
2022/04/26 05:28:01;;;;;;;4.55;2.30;;;;;;;;;;5061105;28;20025;-74
2022/04/26 05:30:28;;;;;;;13.90;2.30;;;;;;;;;;5060917;28;20029;-76
2022/04/26 05:32:54;;;;;;;0.13;0.05;;;;;;;;;;5065272;28;20017;-74
2022/04/26 05:35:22;;;;;;;2.47;2.03;;;;;;;;;;5064595;28;20039;-74
2022/04/26 05:37:48;;;;;;;5.55;2.63;;;;;;;;;;5064081;28;21793;-76
2022/04/26 05:40:15;;;;;;;13.73;3.25;;;;;;;;;;5070190;28;20020;-75
2022/04/26 05:42:41;;;;;;;2.17;1.65;;;;;;;;;;5069897;28;20115;-75
2022/04/26 05:45:08;;;;;;;14.77;2.50;;;;;;;;;;5067969;28;20020;-75
2022/04/26 05:47:34;;;;;;;2.50;2.30;;;;;;;;;;5066173;28;20029;-74
2022/04/26 05:50:01;;;;;;;2.70;2.20;;;;;;;;;;5068012;28;20596;-74
2022/04/26 05:52:27;;;;;;;5.03;2.83;;;;;;;;;;5067804;28;20050;-73
2022/04/26 05:54:53;;;;;;;5.63;1.60;;;;;;;;;;5068736;28;20036;-76
2022/04/26 05:57:20;;;;;;;1.70;1.13;;;;;;;;;;5063590;28;20035;-73
2022/04/26 05:59:46;;;;;;;10.43;2.10;;;;;;;;;;5067926;28;20027;-74
2022/04/26 06:02:12;;;;;;;0.38;0.28;;;;;;;;;;5067946;28;20118;-75
2022/04/26 06:04:39;;;;;;;7.05;3.47;;;;;;;;;;5074165;28;20024;-75
2022/04/26 06:07:27;;;;;;;12.80;5.03;;;;;;;;;;5073210;28;20035;-74
2022/04/26 06:09:54;;;;;;;2.90;1.35;;;;;;;;;;5068143;28;20518;-74
2022/04/26 06:12:26;;;;;;;10.80;3.88;;;;;;;;;;5067550;28;20032;-76
2022/04/26 06:14:53;;;;;;;8.13;2.20;;;;;;;;;;5063723;28;20582;-74
2022/04/26 06:17:20;;;;;;;2.25;1.38;;;;;;;;;;5067761;28;20027;-74
2022/04/26 06:19:46;;;;;;;8.27;2.35;;;;;;;;;;5070687;28;20070;-74
2022/04/26 06:22:13;;;;;;;4.07;1.48;;;;;;;;;;5062205;28;20040;-74
2022/04/26 06:24:39;;;;;;;25.08;3.38;;;;;;;;;;5067449;28;20044;-75
2022/04/26 06:27:06;;;;;;;4.13;2.22;;;;;;;;;;5064374;28;20029;-74
2022/04/26 06:29:32;;;;;;;25.00;4.28;;;;;;;;;;5066459;28;20090;-74
2022/04/26 06:31:59;;;;;;;6.95;1.85;;;;;;;;;;5063244;28;20541;-74
2022/04/26 06:34:26;;;;;;;12.65;4.05;;;;;;;;;;5068527;28;20025;-73
2022/04/26 06:36:52;;;;;;;2.15;1.30;;;;;;;;;;5071165;28;20029;-74
2022/04/26 06:39:19;;;;;;;0.65;0.65;;;;;;;;;;5066838;28;20020;-75
2022/04/26 06:41:45;;;;;;;5.90;1.77;;;;;;;;;;5071109;28;20563;-74
2022/04/26 06:44:11;;;;;;;2.60;1.50;;;;;;;;;;5066425;28;20024;-77
2022/04/26 06:46:38;;;;;;;6.10;0.75;;;;;;;;;;5063817;28;20017;-74
2022/04/26 06:49:05;;;;;;;7.20;2.22;;;;;;;;;;5066117;28;20077;-74
2022/04/26 06:51:42;;;;;;;2.20;0.98;;;;;;;;;;5067176;28;20215;-75
2022/04/26 06:54:09;;;;;;;2.25;1.73;;;;;;;;;;5064409;28;20074;-76
2022/04/26 06:56:35;;;;;;;5.32;2.30;;;;;;;;;;5071963;28;20498;-75
2022/04/26 06:59:01;;;;;;;9.52;4.25;;;;;;;;;;5068014;28;20472;-74
2022/04/26 07:01:28;;;;;;;4.55;1.65;;;;;;;;;;5062870;28;20028;-75
2022/04/26 07:03:54;;;;;;;0.75;0.75;;;;;;;;;;5066905;28;20081;-74
2022/04/26 07:06:21;;;;;;;2.22;2.00;;;;;;;;;;5061640;28;20113;-74
2022/04/26 07:08:48;;;;;;;6.25;1.17;;;;;;;;;;5065436;28;20468;-78
2022/04/26 07:11:15;;;;;;;3.22;0.80;;;;;;;;;;5068224;28;20518;-74
2022/04/26 07:13:41;;;;;;;0.45;0.28;;;;;;;;;;5068002;28;20082;-73
2022/04/26 07:16:08;;;;;;;3.50;1.92;;;;;;;;;;5066264;28;20501;-73
2022/04/26 07:18:34;;;;;;;1.33;1.00;;;;;;;;;;5071730;28;20442;-73
2022/04/26 07:21:01;;;;;;;0.20;0.20;;;;;;;;;;5060764;28;20032;-74
2022/04/26 07:23:27;;;;;;;6.35;3.25;;;;;;;;;;5070279;28;20025;-75
2022/04/26 07:25:55;;;;;;;2.42;1.10;;;;;;;;;;5075198;28;20024;-74
2022/04/26 07:28:22;;;;;;;0.55;0.55;;;;;;;;;;5071977;28;20373;-73
2022/04/26 07:30:49;;;;;;;3.85;2.70;;;;;;;;;;5072204;28;20028;-73
2022/04/26 07:36:00;;;;;;;5.03;0.82;;;;;;;;;;5065047;28;20514;-74
2022/04/26 07:38:27;;;;;;;0.73;0.73;;;;;;;;;;5071008;28;20099;-72
2022/04/26 07:40:53;;;;;;;3.78;1.08;;;;;;;;;;5062925;28;20050;-75
2022/04/26 07:43:21;;;;;;;5.93;1.65;;;;;;;;;;5064813;28;20032;-74
2022/04/26 07:45:47;;;;;;;2.50;0.38;;;;;;;;;;5069692;28;20472;-72
2022/04/26 07:48:16;;;;;;;0.00;0.00;;;;;;;;;;5065634;28;20136;-71
2022/04/26 07:50:44;;;;;;;0.15;0.15;;;;;;;;;;5063253;28;20053;-70
2022/04/26 07:53:11;;;;;;;2.67;0.88;;;;;;;;;;5073508;28;20024;-71
2022/04/26 07:55:38;;;;;;;1.33;0.68;;;;;;;;;;5057199;28;20032;-72
2022/04/26 07:58:05;;;;;;;3.45;3.00;;;;;;;;;;5065544;28;20150;-73
2022/04/26 08:00:31;;;;;;;0.40;0.35;;;;;;;;;;5063574;28;20048;-73
2022/04/26 08:02:58;;;;;;;1.65;0.45;;;;;;;;;;5068168;28;20025;-73
2022/04/26 08:05:24;;;;;;;0.00;0.00;;;;;;;;;;5069622;28;20051;-73
2022/04/26 08:07:51;;;;;;;2.17;1.13;;;;;;;;;;5064152;28;20048;-73
2022/04/26 08:10:17;;;;;;;1.30;0.90;;;;;;;;;;5063960;28;20017;-74
2022/04/26 08:12:44;;;;;;;2.30;1.52;;;;;;;;;;5070403;28;20156;-74
2022/04/26 08:15:12;;;;;;;0.10;0.10;;;;;;;;;;5068951;28;20404;-74
2022/04/26 08:17:38;;;;;;;1.33;1.25;;;;;;;;;;5070585;28;20430;-75
2022/04/26 08:20:06;;;;;;;0.55;0.55;;;;;;;;;;5068727;28;20025;-76
2022/04/26 08:22:32;;;;;;;1.90;1.67;;;;;;;;;;5071016;28;20115;-75
2022/04/26 08:27:44;;;;;;;0.40;0.25;;;;;;;;;;5074140;28;20044;-76
2022/04/26 08:30:10;;;;;;;1.65;1.27;;;;;;;;;;5071948;28;20028;-76
2022/04/26 08:32:40;;;;;;;0.00;0.00;;;;;;;;;;5068986;28;20033;-73
2022/04/26 08:35:11;;;;;;;0.10;0.10;;;;;;;;;;5070545;28;20028;-73
2022/04/26 08:37:38;;;;;;;0.35;0.35;;;;;;;;;;5064032;28;20106;-74
2022/04/26 08:40:06;;;;;;;2.70;0.82;;;;;;;;;;5073152;28;20029;-75
2022/04/26 08:42:37;;;;;;;0.82;0.82;;;;;;;;;;5074496;28;20033;-73
2022/04/26 08:45:05;;;;;;;1.60;1.42;;;;;;;;;;5070076;28;20081;-73
2022/04/26 08:53:02;;;;;;;0.10;0.10;;;;;;;;;;5061999;28;20182;-73
2022/04/26 08:55:31;;;;;;;0.47;0.45;;;;;;;;;;5067386;28;20089;-74
2022/04/26 08:57:57;;;;;;;5.53;5.25;;;;;;;;;;5067330;28;20058;-74
2022/04/26 09:00:24;;;;;;;4.93;4.55;;;;;;;;;;5071503;28;20091;-73
2022/04/26 09:03:12;;;;;;;1.05;0.93;;;;;;;;;;5063079;28;20037;-74
2022/04/26 09:05:38;;;;;;;0.35;0.35;;;;;;;;;;5063358;28;20065;-73
2022/04/26 09:08:23;;;;;;;0.00;0.00;;;;;;;;;;5067795;28;20025;-73
2022/04/26 09:10:50;;;;;;;5.75;5.32;;;;;;;;;;5071359;28;20388;-73
2022/04/26 09:13:19;;;;;;;1.25;1.25;;;;;;;;;;5072089;28;20375;-73
2022/04/26 09:15:50;;;;;;;3.78;2.08;;;;;;;;;;5063402;28;20477;-73
2022/04/26 09:18:24;;;;;;;3.38;1.40;;;;;;;;;;5064117;28;20111;-74
2022/04/26 09:20:55;;;;;;;0.10;0.10;;;;;;;;;;5079553;28;20361;-74
2022/04/26 09:23:22;;;;;;;1.20;1.02;;;;;;;;;;5070357;28;20044;-73
2022/04/26 09:25:51;;;;;;;1.30;0.88;;;;;;;;;;5060797;28;20024;-74
2022/04/26 09:28:22;;;;;;;2.25;2.00;;;;;;;;;;5063031;28;20025;-73
2022/04/26 09:30:48;;;;;;;1.65;1.55;;;;;;;;;;5068222;28;20056;-73
2022/04/26 09:33:31;;;;;;;0.65;0.35;;;;;;;;;;5075300;28;20103;-73
2022/04/26 09:36:01;;;;;;;2.63;2.42;;;;;;;;;;5067474;28;20074;-73
2022/04/26 09:38:31;;;;;;;6.15;3.78;;;;;;;;;;5065985;28;20024;-74
2022/04/26 09:41:02;;;;;;;12.18;3.92;;;;;;;;;;5060731;28;20020;-74
2022/04/26 09:43:31;;;;;;;1.02;1.02;;;;;;;;;;5065078;28;20086;-74
2022/04/26 09:46:00;;;;;;;5.35;3.80;;;;;;;;;;5059954;28;20029;-75
2022/04/26 09:48:35;;;;;;;0.00;0.00;;;;;;;;;;5069023;28;20025;-75
2022/04/26 09:51:03;;;;;;;0.85;0.85;;;;;;;;;;5070516;28;20132;-73
2022/04/26 09:53:35;;;;;;;0.55;0.55;;;;;;;;;;5068473;28;20032;-76
2022/04/26 09:56:02;;;;;;;0.73;0.73;;;;;;;;;;5071039;28;20050;-75
2022/04/26 09:58:29;;;;;;;0.20;0.13;;;;;;;;;;5072519;28;20032;-73
2022/04/26 10:01:04;;;;;;;0.52;0.52;;;;;;;;;;5068379;28;20100;-75
2022/04/26 10:03:38;;;;;;;0.35;0.35;;;;;;;;;;5070413;28;20025;-75
2022/04/26 10:06:06;;;;;;;0.00;0.00;;;;;;;;;;5073718;28;20024;-77
2022/04/26 10:08:36;;;;;;;0.00;0.00;;;;;;;;;;5069484;28;20019;-75
2022/04/26 10:11:03;;;;;;;1.88;1.40;;;;;;;;;;5070091;28;20028;-75
2022/04/26 10:13:31;;;;;;;0.20;0.08;;;;;;;;;;5070683;28;20028;-75
2022/04/26 10:16:01;;;;;;;0.00;0.00;;;;;;;;;;5065137;28;20032;-73
2022/04/26 10:18:32;;;;;;;0.17;0.17;;;;;;;;;;5067150;28;20552;-72
2022/04/26 10:20:59;;;;;;;1.27;0.45;;;;;;;;;;5069580;28;20028;-74
2022/04/26 10:23:26;;;;;;;0.28;0.20;;;;;;;;;;5069680;28;20021;-76
2022/04/26 10:26:10;;;;;;;0.10;0.10;;;;;;;;;;5066185;28;20059;-73
2022/04/26 10:28:50;;;;;;;0.05;0.00;;;;;;;;;;5072527;28;20052;-72
2022/04/26 10:31:20;;;;;;;0.00;0.00;;;;;;;;;;5065973;28;20028;-73
2022/04/26 10:33:49;;;;;;;0.20;0.15;;;;;;;;;;5070932;28;20032;-74
2022/04/26 10:36:31;;;;;;;0.03;0.03;;;;;;;;;;5063437;28;20024;-76
2022/04/26 10:39:07;;;;;;;0.00;0.00;;;;;;;;;;5066398;28;20029;-73
2022/04/26 10:41:34;;;;;;;0.10;0.10;;;;;;;;;;5070125;28;20028;-74
2022/04/26 10:44:16;;;;;;;10.77;5.53;;;;;;;;;;5064629;28;20035;-72
2022/04/26 10:47:09;;;;;;;0.00;0.00;;;;;;;;;;5066166;28;20024;-75
2022/04/26 10:49:38;;;;;;;0.52;0.52;;;;;;;;;;5064831;28;20025;-75
2022/04/26 10:52:13;;;;;;;1.42;0.82;;;;;;;;;;5067396;28;20044;-76
2022/04/26 10:54:46;;;;;;;0.55;0.38;;;;;;;;;;5064929;28;20048;-76
2022/04/26 10:57:13;;;;;;;0.63;0.43;;;;;;;;;;5063464;28;20028;-75
2022/04/26 10:59:43;;;;;;;0.40;0.30;;;;;;;;;;5068578;28;20024;-76
2022/04/26 11:02:12;;;;;;;0.00;0.00;;;;;;;;;;5062535;28;20029;-77
2022/04/26 11:04:38;;;;;;;2.63;0.75;;;;;;;;;;5066877;28;20017;-75
2022/04/26 11:07:11;;;;;;;0.00;0.00;;;;;;;;;;5067019;28;20020;-76
2022/04/26 11:09:46;;;;;;;0.00;0.00;;;;;;;;;;5060410;28;20545;-75
2022/04/26 11:12:13;;;;;;;0.00;0.00;;;;;;;;;;5067474;28;20028;-76
2022/04/26 11:14:43;;;;;;;1.67;0.88;;;;;;;;;;5069902;28;20025;-76
2022/04/26 11:17:09;;;;;;;0.10;0.00;;;;;;;;;;5068224;28;20040;-76
2022/04/26 11:19:37;;;;;;;0.10;0.10;;;;;;;;;;5068099;28;20029;-76
2022/04/26 11:22:13;;;;;;;0.00;0.00;;;;;;;;;;5069805;28;20059;-76
2022/04/26 11:30:11;;;;;;;0.20;0.17;;;;;;;;;;5071270;28;20033;-74
2022/04/26 11:32:44;;;;;;;0.52;0.43;;;;;;;;;;5068748;28;20154;-74
2022/04/26 11:35:17;;;;;;;0.00;0.00;;;;;;;;;;5069537;28;20025;-74
2022/04/26 11:37:59;;;;;;;0.00;0.00;;;;;;;;;;5067113;28;20036;-74
2022/04/26 11:40:25;;;;;;;1.08;0.60;;;;;;;;;;5070180;28;20027;-75
2022/04/26 11:42:52;;;;;;;1.25;1.00;;;;;;;;;;5068272;28;20376;-74
2022/04/26 11:45:19;;;;;;;4.18;3.10;;;;;;;;;;5065882;28;20116;-75
2022/04/26 11:47:48;;;;;;;0.90;0.85;;;;;;;;;;5071467;28;20025;-73
2022/04/26 11:50:15;;;;;;;0.32;0.32;;;;;;;;;;5069505;28;20106;-75
2022/04/26 11:52:45;;;;;;;1.45;0.57;;;;;;;;;;5064888;28;20048;-75
2022/04/26 11:55:23;;;;;;;1.08;0.47;;;;;;;;;;5067067;28;20104;-75
2022/04/26 11:57:50;;;;;;;5.50;3.08;;;;;;;;;;5065414;28;20091;-75
2022/04/26 12:00:18;;;;;;;2.88;2.72;;;;;;;;;;5068743;28;20106;-76
2022/04/26 12:02:49;;;;;;;2.20;1.77;;;;;;;;;;5069069;28;20032;-75
2022/04/26 12:05:20;;;;;;;10.23;9.32;;;;;;;;;;5070418;28;20576;-75
2022/04/26 12:07:46;;;;;;;0.00;0.00;;;;;;;;;;5066861;28;20479;-78
2022/04/26 12:10:25;;;;;;;0.00;0.00;;;;;;;;;;5065452;28;20065;-78
2022/04/26 12:12:56;;;;;;;0.08;0.08;;;;;;;;;;5069389;28;20461;-76
2022/04/26 12:15:26;;;;;;;0.75;0.75;;;;;;;;;;5069381;28;20467;-77
2022/04/26 12:18:22;;;;;;;0.00;0.00;;;;;;;;;;5073500;28;20024;-78
2022/04/26 12:20:59;;;;;;;1.58;1.05;;;;;;;;;;5060240;28;20052;-78
2022/04/26 12:23:26;;;;;;;6.50;3.60;;;;;;;;;;5061650;28;20023;-78
2022/04/26 12:26:03;;;;;;;0.70;0.63;;;;;;;;;;5064697;28;20504;-77
2022/04/26 12:28:30;;;;;;;3.30;2.03;;;;;;;;;;5069592;28;20486;-76
2022/04/26 12:30:57;;;;;;;5.78;2.42;;;;;;;;;;5067714;28;20024;-77
2022/04/26 12:33:26;;;;;;;0.57;0.57;;;;;;;;;;5062479;28;20024;-77
2022/04/26 12:35:59;;;;;;;0.00;0.00;;;;;;;;;;5064775;28;20103;-78
2022/04/26 12:38:25;;;;;;;0.40;0.40;;;;;;;;;;5069559;28;20029;-77
2022/04/26 12:41:02;;;;;;;0.00;0.00;;;;;;;;;;5072155;28;20048;-77
2022/04/26 12:43:29;;;;;;;0.40;0.40;;;;;;;;;;5070585;28;20395;-78
2022/04/26 12:45:59;;;;;;;0.30;0.30;;;;;;;;;;5068618;28;20082;-76
2022/04/26 12:51:17;;;;;;;0.00;0.00;;;;;;;;;;5062936;28;20064;-77
2022/04/26 12:53:45;;;;;;;1.10;0.68;;;;;;;;;;5074389;28;20064;-76
2022/04/26 12:56:12;;;;;;;0.57;0.57;;;;;;;;;;5075872;28;20020;-76
2022/04/26 12:58:39;;;;;;;0.00;0.00;;;;;;;;;;5075430;28;20108;-76
2022/04/26 13:01:06;;;;;;;0.00;0.00;;;;;;;;;;5073094;28;20143;-76
2022/04/26 13:03:33;;;;;;;1.38;1.35;;;;;;;;;;5066066;28;20021;-76
2022/04/26 13:06:08;;;;;;;0.00;0.00;;;;;;;;;;5065755;28;20069;-77
2022/04/26 13:08:35;;;;;;;0.00;0.00;;;;;;;;;;5072149;28;20107;-77
2022/04/26 13:11:04;;;;;;;0.00;0.00;;;;;;;;;;5074477;28;20028;-77
2022/04/26 13:13:30;;;;;;;0.20;0.20;;;;;;;;;;5075196;28;20051;-77
2022/04/26 13:15:57;;;;;;;0.00;0.00;;;;;;;;;;5073394;28;20027;-76
2022/04/26 13:18:23;;;;;;;0.00;0.00;;;;;;;;;;5055870;28;20487;-77
2022/04/26 13:20:49;;;;;;;0.00;0.00;;;;;;;;;;5060542;28;20491;-76
2022/04/26 13:23:17;;;;;;;0.00;0.00;;;;;;;;;;5067339;28;20017;-79
2022/04/26 13:25:43;;;;;;;0.00;0.00;;;;;;;;;;5063046;28;20031;-76
2022/04/26 13:28:10;;;;;;;0.40;0.40;;;;;;;;;;5070210;28;20102;-77
2022/04/26 13:30:37;;;;;;;0.75;0.30;;;;;;;;;;5067250;28;20019;-76
2022/04/26 13:33:03;;;;;;;0.00;0.00;;;;;;;;;;5058107;28;20072;-77
2022/04/26 13:35:30;;;;;;;0.10;0.10;;;;;;;;;;5067029;28;20029;-77
2022/04/26 13:37:58;;;;;;;0.00;0.00;;;;;;;;;;5066683;28;20506;-76
2022/04/26 13:40:25;;;;;;;0.38;0.38;;;;;;;;;;5057867;28;20021;-77
2022/04/26 13:42:56;;;;;;;0.10;0.10;;;;;;;;;;5065089;28;20036;-77
2022/04/26 13:45:22;;;;;;;0.10;0.10;;;;;;;;;;5064724;28;20017;-77
2022/04/26 13:47:49;;;;;;;0.00;0.00;;;;;;;;;;5059305;28;20040;-77
2022/04/26 13:50:15;;;;;;;0.00;0.00;;;;;;;;;;5057086;28;20036;-77
2022/04/26 13:52:44;;;;;;;0.00;0.00;;;;;;;;;;5062772;28;20056;-77
2022/04/26 13:55:15;;;;;;;0.00;0.00;;;;;;;;;;5072627;28;20032;-76
2022/04/26 13:57:43;;;;;;;0.00;0.00;;;;;;;;;;5060879;28;20036;-76
2022/04/26 14:00:11;;;;;;;0.00;0.00;;;;;;;;;;5062333;28;20036;-76
2022/04/26 14:02:38;;;;;;;0.00;0.00;;;;;;;;;;5058947;28;20021;-76
2022/04/26 14:05:04;;;;;;;0.00;0.00;;;;;;;;;;5060641;28;20021;-76
2022/04/26 14:07:31;;;;;;;0.00;0.00;;;;;;;;;;5065406;28;20013;-76
2022/04/26 14:09:57;;;;;;;0.00;0.00;;;;;;;;;;5066516;28;20066;-76
2022/04/26 14:12:23;;;;;;;0.00;0.00;;;;;;;;;;5066687;28;20044;-76
2022/04/26 14:23:21;;;;;;;0.00;0.00;;;;;;;;;;5064549;28;20121;-76
2022/04/26 14:25:47;;;;;;;0.00;0.00;;;;;;;;;;5059899;28;20021;-77
2022/04/26 14:28:14;;;;;;;0.00;0.00;;;;;;;;;;5056348;28;20055;-76
2022/04/26 14:30:40;;;;;;;0.00;0.00;;;;;;;;;;5077635;28;20109;-75
2022/04/26 14:33:06;;;;;;;0.00;0.00;;;;;;;;;;5087563;28;20029;-75
2022/04/26 14:35:33;;;;;;;0.00;0.00;;;;;;;;;;5078489;28;20082;-77
2022/04/26 14:38:00;;;;;;;0.00;0.00;;;;;;;;;;5064044;28;20111;-76
2022/04/26 14:40:26;;;;;;;4.28;2.20;;;;;;;;;;5073013;28;20036;-76
2022/04/26 14:42:54;;;;;;;0.00;0.00;;;;;;;;;;5070710;28;20088;-75
2022/04/26 14:45:21;;;;;;;0.00;0.00;;;;;;;;;;5065725;28;20463;-75
2022/04/26 14:47:47;;;;;;;0.10;0.10;;;;;;;;;;5063365;28;20028;-76
2022/04/26 14:50:14;;;;;;;0.25;0.25;;;;;;;;;;5069282;28;20392;-75
2022/04/26 14:52:40;;;;;;;0.00;0.00;;;;;;;;;;5063749;28;21532;-75
2022/04/26 14:55:08;;;;;;;0.00;0.00;;;;;;;;;;5067960;28;20507;-76
2022/04/26 14:57:35;;;;;;;0.00;0.00;;;;;;;;;;5068232;28;20051;-75
2022/04/26 15:00:05;;;;;;;0.00;0.00;;;;;;;;;;5064610;28;20032;-76
2022/04/26 15:02:38;;;;;;;0.00;0.00;;;;;;;;;;5066854;28;20479;-76
2022/04/26 15:05:07;;;;;;;0.00;0.00;;;;;;;;;;5067057;28;20485;-75
2022/04/26 15:09:42;;;;;;;0.00;0.00;;;;;;;;;;5062784;28;20031;-75
2022/04/26 15:10:20;;;;;;;0.00;0.00;;;;;;;;;;5070860;28;20025;-76
2022/04/26 15:18:17;;;;;;;1.20;1.20;;;;;;;;;;5068347;28;20063;-76
2022/04/26 15:20:48;;;;;;;0.55;0.55;;;;;;;;;;5071574;28;20111;-76
2022/04/26 15:23:15;;;;;;;0.00;0.00;;;;;;;;;;5057972;28;20040;-75
2022/04/26 15:25:48;;;;;;;0.20;0.20;;;;;;;;;;5052771;28;20501;-76
2022/04/26 15:28:15;;;;;;;0.00;0.00;;;;;;;;;;5052823;28;20464;-76
2022/04/26 15:30:42;;;;;;;0.00;0.00;;;;;;;;;;5051426;28;20377;-76
2022/04/26 15:33:08;;;;;;;1.27;1.20;;;;;;;;;;5052521;28;20029;-76
2022/04/26 15:35:36;;;;;;;0.00;0.00;;;;;;;;;;5052665;28;20482;-75
2022/04/26 15:38:03;;;;;;;0.20;0.20;;;;;;;;;;5051378;28;20055;-75
2022/04/26 15:40:29;;;;;;;0.17;0.17;;;;;;;;;;5052573;28;20025;-75
2022/04/26 15:42:55;;;;;;;0.65;0.65;;;;;;;;;;5059626;28;20040;-75
2022/04/26 15:45:22;;;;;;;0.00;0.00;;;;;;;;;;5052455;28;20070;-75
2022/04/26 15:47:48;;;;;;;0.00;0.00;;;;;;;;;;5057280;28;20025;-75
2022/04/26 15:50:15;;;;;;;15.15;8.88;;;;;;;;;;5071228;28;20491;-76
2022/04/26 15:52:41;;;;;;;0.10;0.10;;;;;;;;;;5071099;28;20419;-76
2022/04/26 15:55:08;;;;;;;0.00;0.00;;;;;;;;;;5072042;28;20085;-76
2022/04/26 15:57:35;;;;;;;0.20;0.20;;;;;;;;;;5071217;28;20032;-76
2022/04/26 16:00:02;;;;;;;1.00;1.00;;;;;;;;;;5059399;28;20108;-76
2022/04/26 16:02:31;;;;;;;0.00;0.00;;;;;;;;;;5055207;28;20033;-76
2022/04/26 16:04:57;;;;;;;4.57;4.20;;;;;;;;;;5052082;28;20021;-76
2022/04/26 16:07:24;;;;;;;1.17;1.08;;;;;;;;;;5055798;28;20420;-76
2022/04/26 16:20:49;;;;;;;0.00;0.00;;;;;;;;;;5061000;28;20086;-75
2022/04/26 16:23:15;;;;;;;0.08;0.08;;;;;;;;;;5064676;28;20040;-75
2022/04/26 16:25:42;;;;;;;0.08;0.03;;;;;;;;;;5064539;28;20035;-75
2022/04/26 16:28:09;;;;;;;0.43;0.43;;;;;;;;;;5067177;28;20021;-76
2022/04/26 16:30:35;;;;;;;0.00;0.00;;;;;;;;;;5068096;28;20404;-74
2022/04/26 16:33:04;;;;;;;0.10;0.10;;;;;;;;;;5059632;28;20036;-75
2022/04/26 16:35:32;;;;;;;2.13;2.03;;;;;;;;;;5065668;28;20021;-75
2022/04/26 16:37:58;;;;;;;2.63;2.42;;;;;;;;;;5071838;28;20025;-75
2022/04/26 16:40:26;;;;;;;0.00;0.00;;;;;;;;;;5075888;28;20038;-76
2022/04/26 16:42:53;;;;;;;0.00;0.00;;;;;;;;;;5061628;28;20107;-76
2022/04/26 16:45:19;;;;;;;0.00;0.00;;;;;;;;;;5066671;28;20025;-76
2022/04/26 16:47:45;;;;;;;0.00;0.00;;;;;;;;;;5074421;28;20024;-75
2022/04/26 16:50:12;;;;;;;1.25;1.25;;;;;;;;;;5073327;28;20025;-75
2022/04/26 16:52:39;;;;;;;0.00;0.00;;;;;;;;;;5074168;28;20051;-76
2022/04/26 16:55:05;;;;;;;0.00;0.00;;;;;;;;;;5073289;28;20042;-75
2022/04/26 16:57:32;;;;;;;0.17;0.17;;;;;;;;;;5061900;28;20040;-77
2022/04/26 16:59:59;;;;;;;0.00;0.00;;;;;;;;;;5071258;28;20384;-76
2022/04/26 17:02:26;;;;;;;0.03;0.03;;;;;;;;;;5060424;28;20033;-77
2022/04/26 17:04:52;;;;;;;0.98;0.90;;;;;;;;;;5055399;28;20026;-76
2022/04/26 17:07:19;;;;;;;0.22;0.22;;;;;;;;;;5056019;28;20025;-76
2022/04/26 17:09:46;;;;;;;1.08;1.08;;;;;;;;;;5067869;28;20503;-77
2022/04/26 17:12:14;;;;;;;0.00;0.00;;;;;;;;;;5061173;28;20040;-76
2022/04/26 17:14:41;;;;;;;0.00;0.00;;;;;;;;;;5066932;28;20029;-76
2022/04/26 17:17:08;;;;;;;7.78;3.63;;;;;;;;;;5074344;28;20553;-76
2022/04/26 17:19:34;;;;;;;0.00;0.00;;;;;;;;;;5072496;28;20551;-75
2022/04/26 17:22:01;;;;;;;0.10;0.10;;;;;;;;;;5074918;28;20040;-76
2022/04/26 17:27:12;;;;;;;0.08;0.08;;;;;;;;;;5064646;28;20097;-75
2022/04/26 17:29:39;;;;;;;0.00;0.00;;;;;;;;;;5065311;28;20025;-75
2022/04/26 17:32:14;;;;;;;0.00;0.00;;;;;;;;;;5065997;28;20029;-76
2022/04/26 17:34:40;;;;;;;0.00;0.00;;;;;;;;;;5056278;28;20017;-76
2022/04/26 17:37:07;;;;;;;0.00;0.00;;;;;;;;;;5068759;28;20460;-76
2022/04/26 17:39:33;;;;;;;0.10;0.10;;;;;;;;;;5063957;28;20035;-75
2022/04/26 17:41:59;;;;;;;0.00;0.00;;;;;;;;;;5054518;28;20025;-75
2022/04/26 17:44:26;;;;;;;0.00;0.00;;;;;;;;;;5064222;28;20035;-75
2022/04/26 17:46:52;;;;;;;0.13;0.13;;;;;;;;;;5071211;28;20028;-76
2022/04/26 17:49:19;;;;;;;0.00;0.00;;;;;;;;;;5069475;28;20651;-76
2022/04/26 17:51:45;;;;;;;0.00;0.00;;;;;;;;;;5072941;28;20044;-75
2022/04/26 17:56:56;;;;;;;0.10;0.10;;;;;;;;;;5062518;28;20491;-75
2022/04/26 17:59:23;;;;;;;0.10;0.10;;;;;;;;;;5073921;28;20452;-75
2022/04/26 18:01:49;;;;;;;4.45;4.28;;;;;;;;;;5072908;28;20024;-75
2022/04/26 18:04:15;;;;;;;0.00;0.00;;;;;;;;;;5065827;28;20488;-76
2022/04/26 18:06:42;;;;;;;0.00;0.00;;;;;;;;;;5058509;28;20540;-76
2022/04/26 18:09:08;;;;;;;0.00;0.00;;;;;;;;;;5069159;28;20017;-76
2022/04/26 18:11:34;;;;;;;0.00;0.00;;;;;;;;;;5061393;28;20021;-76
2022/04/26 18:14:01;;;;;;;0.00;0.00;;;;;;;;;;5071635;28;20025;-76
2022/04/26 18:16:27;;;;;;;0.32;0.32;;;;;;;;;;5072736;28;20024;-76
2022/04/26 18:18:57;;;;;;;0.00;0.00;;;;;;;;;;5072802;28;20454;-75
2022/04/26 18:21:24;;;;;;;0.00;0.00;;;;;;;;;;5073968;28;20043;-76
2022/04/26 18:23:51;;;;;;;0.00;0.00;;;;;;;;;;5072731;28;20016;-75
2022/04/26 18:26:19;;;;;;;0.00;0.00;;;;;;;;;;5073885;28;20021;-76
2022/04/26 18:28:45;;;;;;;0.00;0.00;;;;;;;;;;5074198;28;20040;-76
2022/04/26 18:31:12;;;;;;;0.00;0.00;;;;;;;;;;5072417;28;20155;-76
2022/04/26 18:33:39;;;;;;;0.00;0.00;;;;;;;;;;5073872;28;20083;-75
2022/04/26 18:36:09;;;;;;;0.00;0.00;;;;;;;;;;5073545;28;20033;-75
2022/04/26 18:38:36;;;;;;;0.98;0.98;;;;;;;;;;5073904;28;20422;-76
2022/04/26 18:41:03;;;;;;;0.00;0.00;;;;;;;;;;5072285;28;20384;-76
2022/04/26 18:43:29;;;;;;;6.18;1.20;;;;;;;;;;5073530;28;20036;-76
2022/04/26 18:46:00;;;;;;;0.63;0.63;;;;;;;;;;5070496;28;20028;-76
2022/04/26 18:48:26;;;;;;;1.15;1.13;;;;;;;;;;5073336;28;20031;-76
2022/04/26 18:50:53;;;;;;;1.17;1.17;;;;;;;;;;5072172;28;20020;-75
2022/04/26 18:53:19;;;;;;;0.88;0.82;;;;;;;;;;5071857;28;20049;-76
2022/04/26 18:55:46;;;;;;;0.47;0.47;;;;;;;;;;5070495;28;20077;-76
2022/04/26 18:58:12;;;;;;;0.65;0.52;;;;;;;;;;5051873;28;20029;-75
2022/04/26 19:00:39;;;;;;;0.00;0.00;;;;;;;;;;5052953;28;20028;-74
2022/04/26 19:03:05;;;;;;;1.77;1.67;;;;;;;;;;5051217;28;20025;-75
2022/04/26 19:05:32;;;;;;;0.00;0.00;;;;;;;;;;5051996;28;20078;-75
2022/04/26 19:07:58;;;;;;;6.13;5.68;;;;;;;;;;5052937;28;20021;-75
2022/04/26 19:13:10;;;;;;;0.00;0.00;;;;;;;;;;5053126;28;20101;-75
2022/04/26 19:15:36;;;;;;;0.00;0.00;;;;;;;;;;5051923;28;20059;-75
2022/04/26 19:18:03;;;;;;;0.15;0.15;;;;;;;;;;5059748;28;20025;-75
2022/04/26 19:20:31;;;;;;;0.00;0.00;;;;;;;;;;5087460;28;20059;-75
2022/04/26 19:23:00;;;;;;;0.00;0.00;;;;;;;;;;5072695;28;20021;-75